logo
Search for airport 
image banner adimage banner adimage banner ad
image banner ad

LOIO - Oamtc/Solden

Located in District Imst, Austria

ICAO - , IATA -

Data provided by Airmate  

General information

Coordinates: N46°56'47" E11°1'7"
Elevation is 4987 feet MSL.
 
View others Airports in Tyrol

Operational data

Special qualification required
Current time UTC:
Current local time:
Weather at : LOWI - Innsbruck ( 43 km )
METAR: LOWI 150850Z 04003KT 360V150 9999 FEW050 SCT070 BKN100 16/08 Q1013 NOSIG
TAF: TAF LOWI 150515Z 1506/1606 27003KT 9999 SCT070 TX19/1512Z TN08/1606Z TEMPO 1509/1512 27015G25KT SHRA FEW060CB BKN090 BECMG 1510/1512 09007KT TEMPO 1512/1521 27020G40KT TSRA SCT050CB BKN070 BECMG 1516/1518 27006KT TEMPO 1521/1606 27015G30KT SHRA
View NOTAMs / SUP AIP / TFR affecting this airport [VIEW]
Communications frequencies: [VIEW]

Runways:

Airport contact information

Address: District Imst Austria

Satellite view of LOIO